Time;durP1;ratioP1;P1;durP2;ratioP2;P2;SDS_P1;SDS_P2;PMS_P1;PMS_P2;Temp;Humidity;BMP_temperature;BMP_pressure;BME280_temperature;BME280_humidity;BME280_pressure;Samples;Min_cycle;Max_cycle;Signal;HPM_P1;HPM_P2
2022/02/18 00:00:12;;;;;;;13.57;2.90;;;;;;;;;;5055172;28;20231;-69
2022/02/18 00:02:37;;;;;;;12.00;2.50;;;;;;;;;;5073668;28;20225;-69
2022/02/18 00:05:02;;;;;;;20.83;3.63;;;;;;;;;;5071172;28;20208;-69
2022/02/18 00:07:27;;;;;;;12.67;2.87;;;;;;;;;;5072015;28;20288;-69
2022/02/18 00:09:53;;;;;;;11.17;3.37;;;;;;;;;;5070277;28;20234;-69
2022/02/18 00:12:18;;;;;;;15.23;3.40;;;;;;;;;;5071385;28;20177;-69
2022/02/18 00:14:43;;;;;;;16.60;2.80;;;;;;;;;;5071278;28;20259;-70
2022/02/18 00:17:08;;;;;;;19.03;3.27;;;;;;;;;;5054783;28;20177;-69
2022/02/18 00:19:35;;;;;;;17.80;3.27;;;;;;;;;;5072413;28;20172;-69
2022/02/18 00:22:00;;;;;;;9.20;3.03;;;;;;;;;;5076492;28;20177;-69
2022/02/18 00:24:25;;;;;;;18.90;3.23;;;;;;;;;;5073563;28;20476;-69
2022/02/18 00:26:50;;;;;;;14.83;3.70;;;;;;;;;;5073661;28;20630;-70
2022/02/18 00:29:15;;;;;;;20.57;3.77;;;;;;;;;;5076933;28;20205;-69
2022/02/18 00:31:41;;;;;;;14.87;3.53;;;;;;;;;;5073625;28;20580;-69
2022/02/18 00:34:06;;;;;;;16.67;4.97;;;;;;;;;;5076041;28;20203;-70
2022/02/18 00:36:31;;;;;;;13.20;3.50;;;;;;;;;;5072191;28;20177;-69
2022/02/18 00:38:56;;;;;;;17.33;3.60;;;;;;;;;;5072479;28;20217;-69
2022/02/18 00:41:21;;;;;;;24.10;3.97;;;;;;;;;;5061384;28;20180;-69
2022/02/18 00:43:47;;;;;;;14.63;3.43;;;;;;;;;;5062311;28;20663;-69
2022/02/18 00:46:12;;;;;;;11.07;2.93;;;;;;;;;;5074112;28;20654;-70
2022/02/18 00:48:37;;;;;;;13.23;2.80;;;;;;;;;;5066175;28;20292;-69
2022/02/18 00:51:02;;;;;;;31.80;4.20;;;;;;;;;;5073111;28;20181;-70
2022/02/18 00:53:27;;;;;;;17.93;2.53;;;;;;;;;;5072597;28;20189;-69
2022/02/18 00:55:53;;;;;;;14.17;3.03;;;;;;;;;;5054033;28;20177;-69
2022/02/18 00:58:20;;;;;;;15.87;3.17;;;;;;;;;;5072765;28;20707;-69
2022/02/18 01:00:45;;;;;;;13.20;3.00;;;;;;;;;;5070482;28;20177;-69
2022/02/18 01:03:11;;;;;;;14.37;2.80;;;;;;;;;;5068411;28;20563;-69
2022/02/18 01:05:36;;;;;;;8.57;2.20;;;;;;;;;;5057389;28;20549;-71
2022/02/18 01:08:01;;;;;;;14.57;3.20;;;;;;;;;;5053412;28;20178;-69
2022/02/18 01:10:26;;;;;;;11.17;3.07;;;;;;;;;;5051488;28;20212;-69
2022/02/18 01:12:51;;;;;;;14.30;3.20;;;;;;;;;;5055393;28;20173;-69
2022/02/18 01:15:17;;;;;;;10.97;2.47;;;;;;;;;;5067948;28;20225;-69
2022/02/18 01:17:42;;;;;;;10.47;2.63;;;;;;;;;;5070485;28;20268;-69
2022/02/18 01:20:08;;;;;;;9.10;2.40;;;;;;;;;;5069393;28;20181;-69
2022/02/18 01:22:33;;;;;;;13.73;2.83;;;;;;;;;;5071460;28;20570;-69
2022/02/18 01:24:58;;;;;;;13.07;3.10;;;;;;;;;;5070308;28;20224;-69
2022/02/18 01:27:24;;;;;;;9.43;2.20;;;;;;;;;;5070622;28;20535;-69
2022/02/18 01:29:49;;;;;;;16.03;3.43;;;;;;;;;;5070817;28;20311;-70
2022/02/18 01:32:15;;;;;;;14.00;3.00;;;;;;;;;;5063599;28;20655;-70
2022/02/18 01:34:40;;;;;;;13.47;3.20;;;;;;;;;;5068786;28;20334;-70
2022/02/18 01:37:06;;;;;;;16.20;3.10;;;;;;;;;;5070011;28;20200;-70
2022/02/18 01:39:32;;;;;;;16.37;2.97;;;;;;;;;;5068801;28;20207;-70
2022/02/18 01:41:57;;;;;;;17.90;3.00;;;;;;;;;;5072316;28;20165;-70
2022/02/18 01:44:35;;;;;;;11.70;2.57;;;;;;;;;;5052906;28;20211;-69
2022/02/18 01:47:00;;;;;;;12.50;3.10;;;;;;;;;;5070690;28;20231;-70
2022/02/18 01:49:25;;;;;;;18.83;2.70;;;;;;;;;;5070725;28;20547;-70
2022/02/18 01:51:51;;;;;;;18.03;3.27;;;;;;;;;;5070707;28;20199;-70
2022/02/18 01:54:16;;;;;;;10.80;2.63;;;;;;;;;;5070154;28;20674;-68
2022/02/18 01:56:41;;;;;;;13.80;2.57;;;;;;;;;;5071787;28;20180;-69
2022/02/18 01:59:06;;;;;;;19.43;4.13;;;;;;;;;;5071639;28;20303;-68
2022/02/18 02:01:31;;;;;;;11.07;2.60;;;;;;;;;;5062460;28;20207;-70
2022/02/18 02:03:57;;;;;;;14.20;4.43;;;;;;;;;;5064313;28;20208;-70
2022/02/18 02:06:23;;;;;;;13.13;2.83;;;;;;;;;;5067421;28;20216;-70
2022/02/18 02:08:49;;;;;;;9.53;2.80;;;;;;;;;;5069269;28;20201;-70
2022/02/18 02:11:14;;;;;;;11.50;2.37;;;;;;;;;;5069443;28;20183;-70
2022/02/18 02:13:40;;;;;;;15.57;3.10;;;;;;;;;;5067359;28;20249;-70
2022/02/18 02:16:05;;;;;;;13.47;3.03;;;;;;;;;;5069121;28;20268;-70
2022/02/18 02:18:31;;;;;;;14.70;3.33;;;;;;;;;;5068673;28;20256;-70
2022/02/18 02:20:56;;;;;;;12.40;3.73;;;;;;;;;;5072037;28;20181;-70
2022/02/18 02:23:22;;;;;;;11.97;3.27;;;;;;;;;;5069144;28;20236;-69
2022/02/18 02:25:47;;;;;;;11.43;2.70;;;;;;;;;;5069681;28;20165;-68
2022/02/18 02:28:12;;;;;;;11.70;3.20;;;;;;;;;;5067026;28;20483;-69
2022/02/18 02:30:37;;;;;;;16.47;3.10;;;;;;;;;;5066648;28;20177;-69
2022/02/18 02:33:02;;;;;;;11.23;2.97;;;;;;;;;;5067672;28;20204;-69
2022/02/18 02:35:28;;;;;;;14.10;2.70;;;;;;;;;;5067722;28;20183;-69
2022/02/18 02:37:54;;;;;;;12.80;2.83;;;;;;;;;;5068737;28;20559;-69
2022/02/18 02:40:19;;;;;;;18.50;3.63;;;;;;;;;;5070013;28;20169;-69
2022/02/18 02:42:45;;;;;;;17.03;3.23;;;;;;;;;;5067612;28;20176;-69
2022/02/18 02:45:10;;;;;;;15.70;3.23;;;;;;;;;;5069326;28;20177;-68
2022/02/18 02:47:39;;;;;;;12.17;3.37;;;;;;;;;;5068400;28;20216;-69
2022/02/18 02:50:05;;;;;;;19.13;3.37;;;;;;;;;;5070133;28;20682;-69
2022/02/18 02:52:30;;;;;;;19.47;3.50;;;;;;;;;;5069785;28;20183;-69
2022/02/18 02:54:55;;;;;;;19.53;4.73;;;;;;;;;;5072888;28;20650;-69
2022/02/18 02:57:21;;;;;;;13.47;3.27;;;;;;;;;;5070921;28;20176;-68
2022/02/18 02:59:46;;;;;;;15.60;4.10;;;;;;;;;;5068302;28;20201;-69
2022/02/18 03:02:11;;;;;;;23.97;3.77;;;;;;;;;;5071797;28;20181;-68
2022/02/18 03:04:36;;;;;;;16.37;3.73;;;;;;;;;;5057259;28;20208;-69
2022/02/18 03:07:02;;;;;;;15.17;3.80;;;;;;;;;;5067873;28;20188;-69
2022/02/18 03:09:27;;;;;;;24.40;4.63;;;;;;;;;;5070011;28;20797;-69
2022/02/18 03:11:52;;;;;;;18.67;4.53;;;;;;;;;;5067304;28;20237;-69
2022/02/18 03:14:17;;;;;;;21.57;4.60;;;;;;;;;;5070579;28;20709;-70
2022/02/18 03:16:42;;;;;;;17.43;4.90;;;;;;;;;;5066936;28;20192;-68
2022/02/18 03:19:08;;;;;;;14.33;4.27;;;;;;;;;;5069894;28;20622;-69
2022/02/18 03:21:33;;;;;;;18.20;3.70;;;;;;;;;;5069552;28;20177;-69
2022/02/18 03:23:58;;;;;;;21.00;4.37;;;;;;;;;;5071035;28;20254;-69
2022/02/18 03:26:23;;;;;;;21.60;4.43;;;;;;;;;;5069364;28;20580;-68
2022/02/18 03:28:48;;;;;;;29.43;5.33;;;;;;;;;;5050749;28;20664;-69
2022/02/18 03:31:14;;;;;;;22.33;5.23;;;;;;;;;;5070611;28;20591;-68
2022/02/18 03:33:39;;;;;;;22.03;6.40;;;;;;;;;;5073468;28;20211;-69
2022/02/18 03:36:05;;;;;;;21.50;5.37;;;;;;;;;;5072489;28;20173;-69
2022/02/18 03:38:30;;;;;;;28.60;6.87;;;;;;;;;;5073245;28;20169;-69
2022/02/18 03:40:55;;;;;;;20.73;6.27;;;;;;;;;;5073988;28;20234;-70
2022/02/18 03:43:21;;;;;;;23.30;5.17;;;;;;;;;;5073141;28;20299;-69
2022/02/18 03:45:46;;;;;;;33.77;6.53;;;;;;;;;;5072720;28;20177;-69
2022/02/18 03:48:11;;;;;;;24.00;6.00;;;;;;;;;;5069380;28;20181;-69
2022/02/18 03:50:37;;;;;;;27.50;6.13;;;;;;;;;;5073068;28;20536;-70
2022/02/18 03:53:03;;;;;;;24.60;4.80;;;;;;;;;;5073445;28;20546;-69
2022/02/18 03:55:28;;;;;;;22.80;4.97;;;;;;;;;;5071325;28;20173;-69
2022/02/18 03:57:54;;;;;;;25.63;5.33;;;;;;;;;;5055094;28;20181;-68
2022/02/18 04:00:19;;;;;;;26.10;5.83;;;;;;;;;;5073108;28;20188;-69
2022/02/18 04:02:44;;;;;;;25.77;7.03;;;;;;;;;;5071449;28;20205;-69
2022/02/18 04:05:09;;;;;;;24.17;5.93;;;;;;;;;;5060394;28;20189;-69
2022/02/18 04:07:34;;;;;;;20.70;6.03;;;;;;;;;;5070821;28;20181;-69
2022/02/18 04:10:00;;;;;;;27.00;6.27;;;;;;;;;;5072292;28;20211;-69
2022/02/18 04:12:25;;;;;;;21.03;6.43;;;;;;;;;;5054545;28;20177;-69
2022/02/18 04:14:51;;;;;;;27.57;6.57;;;;;;;;;;5070629;28;20280;-69
2022/02/18 04:17:16;;;;;;;18.90;5.37;;;;;;;;;;5073797;28;20187;-69
2022/02/18 04:19:41;;;;;;;20.77;5.73;;;;;;;;;;5071391;28;20177;-69
2022/02/18 04:22:06;;;;;;;30.03;7.63;;;;;;;;;;5071861;28;20177;-69
2022/02/18 04:24:31;;;;;;;21.97;6.40;;;;;;;;;;5072243;28;20312;-69
2022/02/18 04:26:57;;;;;;;23.60;6.97;;;;;;;;;;5073067;28;20178;-67
2022/02/18 04:29:22;;;;;;;24.93;7.87;;;;;;;;;;5069358;28;20233;-67
2022/02/18 04:31:47;;;;;;;32.23;7.63;;;;;;;;;;5072300;28;20220;-67
2022/02/18 04:34:12;;;;;;;20.87;6.30;;;;;;;;;;5069957;28;20705;-66
2022/02/18 04:36:37;;;;;;;29.60;7.73;;;;;;;;;;5071749;28;20184;-67
2022/02/18 04:39:03;;;;;;;24.70;6.37;;;;;;;;;;5054386;28;20213;-66
2022/02/18 04:41:28;;;;;;;28.20;6.03;;;;;;;;;;5071753;28;20181;-67
2022/02/18 04:43:53;;;;;;;26.67;7.07;;;;;;;;;;5067172;28;20209;-67
2022/02/18 04:46:18;;;;;;;32.20;7.50;;;;;;;;;;5068534;28;20287;-66
2022/02/18 04:48:43;;;;;;;31.43;6.93;;;;;;;;;;5061479;28;20189;-67
2022/02/18 04:51:09;;;;;;;26.33;6.77;;;;;;;;;;5072286;28;20177;-70
2022/02/18 04:53:34;;;;;;;20.77;6.47;;;;;;;;;;5071426;28;20196;-67
2022/02/18 04:55:59;;;;;;;23.60;5.30;;;;;;;;;;5072597;28;20172;-70
2022/02/18 04:58:24;;;;;;;30.90;5.57;;;;;;;;;;5072251;28;20193;-69
2022/02/18 05:00:50;;;;;;;28.70;6.10;;;;;;;;;;5072273;28;20184;-70
2022/02/18 05:03:15;;;;;;;22.60;5.43;;;;;;;;;;5071499;28;20574;-69
2022/02/18 05:05:40;;;;;;;35.40;5.27;;;;;;;;;;5058783;28;20181;-69
2022/02/18 05:08:05;;;;;;;24.93;5.67;;;;;;;;;;5070008;28;20440;-70
2022/02/18 05:10:31;;;;;;;29.73;5.17;;;;;;;;;;5070986;28;20254;-69
2022/02/18 05:12:56;;;;;;;34.07;6.97;;;;;;;;;;5071993;28;20310;-69
2022/02/18 05:15:21;;;;;;;29.90;4.90;;;;;;;;;;5070360;28;20195;-69
2022/02/18 05:17:48;;;;;;;34.47;6.87;;;;;;;;;;5071911;28;20185;-69
2022/02/18 05:20:14;;;;;;;25.47;4.57;;;;;;;;;;5052420;28;20212;-69
2022/02/18 05:22:39;;;;;;;28.10;5.77;;;;;;;;;;5074930;28;20173;-69
2022/02/18 05:25:04;;;;;;;26.83;4.60;;;;;;;;;;5070711;28;20212;-69
2022/02/18 05:27:29;;;;;;;21.97;4.73;;;;;;;;;;5071468;28;20550;-67
2022/02/18 05:29:55;;;;;;;26.37;5.30;;;;;;;;;;5071206;28;20208;-69
2022/02/18 05:32:20;;;;;;;24.63;5.60;;;;;;;;;;5070695;28;20181;-68
2022/02/18 05:34:45;;;;;;;23.93;5.50;;;;;;;;;;5069861;28;20620;-68
2022/02/18 05:37:11;;;;;;;24.90;6.33;;;;;;;;;;5070672;28;20566;-68
2022/02/18 05:39:36;;;;;;;26.67;6.17;;;;;;;;;;5053297;28;20179;-68
2022/02/18 05:42:02;;;;;;;24.00;5.87;;;;;;;;;;5071182;28;20650;-68
2022/02/18 05:44:31;;;;;;;22.07;4.57;;;;;;;;;;5070775;28;20204;-67
2022/02/18 05:46:56;;;;;;;20.17;5.30;;;;;;;;;;5071107;28;20176;-68
2022/02/18 05:49:21;;;;;;;23.20;4.80;;;;;;;;;;5068707;28;20203;-67
2022/02/18 05:51:46;;;;;;;23.40;4.80;;;;;;;;;;5070938;28;20805;-67
2022/02/18 05:54:11;;;;;;;39.13;5.93;;;;;;;;;;5068955;28;20197;-68
2022/02/18 05:56:37;;;;;;;23.77;4.03;;;;;;;;;;5071494;28;20270;-69
2022/02/18 05:59:02;;;;;;;18.77;4.30;;;;;;;;;;5068464;28;20179;-69
2022/02/18 06:01:27;;;;;;;21.87;3.97;;;;;;;;;;5060234;28;20180;-69
2022/02/18 06:03:52;;;;;;;24.30;5.37;;;;;;;;;;5049342;28;20250;-69
2022/02/18 06:06:18;;;;;;;23.07;6.07;;;;;;;;;;5069275;28;20173;-69
2022/02/18 06:08:43;;;;;;;16.63;3.83;;;;;;;;;;5071094;28;20615;-69
2022/02/18 06:11:08;;;;;;;18.80;4.57;;;;;;;;;;5069894;28;20173;-69
2022/02/18 06:13:33;;;;;;;20.70;4.30;;;;;;;;;;5070656;28;20277;-68
2022/02/18 06:15:58;;;;;;;18.40;4.17;;;;;;;;;;5060724;28;20702;-69
2022/02/18 06:18:24;;;;;;;17.50;4.77;;;;;;;;;;5061395;28;20201;-68
2022/02/18 06:20:49;;;;;;;15.70;4.53;;;;;;;;;;5069108;28;20187;-69
2022/02/18 06:23:14;;;;;;;24.17;5.27;;;;;;;;;;5072318;28;20237;-68
2022/02/18 06:25:40;;;;;;;23.27;4.60;;;;;;;;;;5069553;28;20205;-69
2022/02/18 06:28:05;;;;;;;17.47;4.60;;;;;;;;;;5069442;28;20541;-69
2022/02/18 06:30:31;;;;;;;24.57;3.57;;;;;;;;;;5051016;28;20291;-70
2022/02/18 06:32:57;;;;;;;15.80;3.87;;;;;;;;;;5071203;28;20646;-69
2022/02/18 06:35:22;;;;;;;17.87;5.53;;;;;;;;;;5070953;28;20169;-70
2022/02/18 06:37:47;;;;;;;27.03;4.53;;;;;;;;;;5070509;28;20211;-69
2022/02/18 06:40:13;;;;;;;27.00;5.33;;;;;;;;;;5071081;28;20830;-69
2022/02/18 06:42:38;;;;;;;24.83;4.83;;;;;;;;;;5070862;28;20196;-69
2022/02/18 06:45:03;;;;;;;25.20;5.10;;;;;;;;;;5070839;28;20224;-69
2022/02/18 06:47:29;;;;;;;20.67;5.13;;;;;;;;;;5070277;28;20173;-69
2022/02/18 06:49:54;;;;;;;23.63;4.67;;;;;;;;;;5070931;28;20734;-69
2022/02/18 06:52:19;;;;;;;16.80;4.07;;;;;;;;;;5070950;28;20165;-69
2022/02/18 06:54:44;;;;;;;19.10;4.87;;;;;;;;;;5069266;28;20192;-69
2022/02/18 06:57:09;;;;;;;17.43;3.50;;;;;;;;;;5070707;28;20188;-69
2022/02/18 06:59:34;;;;;;;16.40;3.93;;;;;;;;;;5070890;28;20177;-69
2022/02/18 07:02:00;;;;;;;19.17;4.50;;;;;;;;;;5066724;28;20670;-69
2022/02/18 07:04:25;;;;;;;21.33;4.27;;;;;;;;;;5061570;28;20204;-69
2022/02/18 07:06:50;;;;;;;25.80;5.57;;;;;;;;;;5060312;28;20183;-70
2022/02/18 07:09:15;;;;;;;20.33;5.53;;;;;;;;;;5070356;28;20291;-69
2022/02/18 07:11:41;;;;;;;20.43;4.63;;;;;;;;;;5068330;28;20175;-67
2022/02/18 07:14:07;;;;;;;22.40;5.47;;;;;;;;;;5070175;28;20219;-68
2022/02/18 07:16:32;;;;;;;20.80;4.97;;;;;;;;;;5070637;28;20177;-68
2022/02/18 07:18:59;;;;;;;16.97;4.70;;;;;;;;;;5052866;28;20230;-69
2022/02/18 07:21:24;;;;;;;20.03;5.97;;;;;;;;;;5070404;28;20185;-69
2022/02/18 07:23:49;;;;;;;26.57;6.20;;;;;;;;;;5073537;28;20209;-69
2022/02/18 07:26:14;;;;;;;22.27;7.53;;;;;;;;;;5070489;28;20196;-69
2022/02/18 07:28:40;;;;;;;19.97;4.97;;;;;;;;;;5070570;28;20666;-69
2022/02/18 07:31:05;;;;;;;26.77;5.93;;;;;;;;;;5070784;28;20169;-69
2022/02/18 07:33:30;;;;;;;22.47;5.27;;;;;;;;;;5070345;28;20200;-69
2022/02/18 07:35:55;;;;;;;18.30;5.23;;;;;;;;;;5070538;28;20200;-69
2022/02/18 07:38:20;;;;;;;16.93;5.23;;;;;;;;;;5070534;28;20524;-69
2022/02/18 07:40:46;;;;;;;20.30;5.53;;;;;;;;;;5070669;28;20234;-69
2022/02/18 07:43:11;;;;;;;28.10;7.40;;;;;;;;;;5070568;28;20566;-69
2022/02/18 07:45:36;;;;;;;18.70;5.97;;;;;;;;;;5070150;28;20180;-69
2022/02/18 07:48:02;;;;;;;18.50;5.43;;;;;;;;;;5070026;28;20181;-70
2022/02/18 07:50:27;;;;;;;17.50;5.70;;;;;;;;;;5070378;28;20562;-69
2022/02/18 07:52:52;;;;;;;17.20;5.40;;;;;;;;;;5070335;28;20173;-68
2022/02/18 07:55:17;;;;;;;15.57;6.13;;;;;;;;;;5070035;28;20173;-69
2022/02/18 07:57:43;;;;;;;18.73;5.53;;;;;;;;;;5070784;28;20593;-69
2022/02/18 08:00:08;;;;;;;19.03;5.17;;;;;;;;;;5069600;28;20705;-70
2022/02/18 08:02:34;;;;;;;16.33;5.40;;;;;;;;;;5068026;28;20673;-69
2022/02/18 08:04:59;;;;;;;17.80;7.17;;;;;;;;;;5070145;28;20193;-70
2022/02/18 08:07:24;;;;;;;15.10;6.83;;;;;;;;;;5066161;28;20213;-69
2022/02/18 08:09:49;;;;;;;18.53;6.10;;;;;;;;;;5056361;28;20209;-69
2022/02/18 08:12:14;;;;;;;18.90;7.33;;;;;;;;;;5056288;28;20180;-69
2022/02/18 08:14:39;;;;;;;20.77;6.40;;;;;;;;;;5062943;28;20192;-68
2022/02/18 08:17:05;;;;;;;17.73;6.10;;;;;;;;;;5055191;28;20200;-69
2022/02/18 08:19:30;;;;;;;12.80;5.40;;;;;;;;;;5066066;28;20222;-69
2022/02/18 08:21:56;;;;;;;21.63;6.70;;;;;;;;;;5070420;28;20256;-68
2022/02/18 08:24:21;;;;;;;10.93;6.07;;;;;;;;;;5084706;22;20258;-68
2022/02/18 08:26:47;;;;;;;17.00;6.00;;;;;;;;;;5076479;28;20592;-69
2022/02/18 08:29:12;;;;;;;13.67;6.20;;;;;;;;;;5075635;28;20599;-69
2022/02/18 08:31:37;;;;;;;13.57;5.67;;;;;;;;;;5080644;28;20252;-68
2022/02/18 08:34:03;;;;;;;16.93;6.73;;;;;;;;;;5074889;28;20238;-68
2022/02/18 08:36:28;;;;;;;13.87;7.77;;;;;;;;;;5070859;28;20612;-68
2022/02/18 08:38:53;;;;;;;11.77;6.20;;;;;;;;;;5061660;28;20192;-68
2022/02/18 08:41:18;;;;;;;15.20;7.00;;;;;;;;;;5069830;28;20177;-69
2022/02/18 08:43:44;;;;;;;19.53;7.50;;;;;;;;;;5071195;28;20192;-69
2022/02/18 08:46:09;;;;;;;13.73;7.10;;;;;;;;;;5068404;28;20185;-68
2022/02/18 08:48:34;;;;;;;12.70;7.50;;;;;;;;;;5068946;28;20197;-68
2022/02/18 08:50:59;;;;;;;13.17;7.63;;;;;;;;;;5073345;28;20530;-68
2022/02/18 08:53:25;;;;;;;16.23;8.10;;;;;;;;;;5068737;28;20173;-68
2022/02/18 08:55:50;;;;;;;11.77;7.77;;;;;;;;;;5073047;28;20177;-68
2022/02/18 08:58:15;;;;;;;16.13;8.07;;;;;;;;;;5064103;28;20191;-68
2022/02/18 09:00:40;;;;;;;12.70;8.00;;;;;;;;;;5063468;28;20195;-68
2022/02/18 09:03:06;;;;;;;14.07;8.07;;;;;;;;;;5067885;28;20208;-68
2022/02/18 09:05:31;;;;;;;14.10;8.33;;;;;;;;;;5067964;28;20650;-68
2022/02/18 09:07:56;;;;;;;13.37;8.40;;;;;;;;;;5063222;28;20189;-68
2022/02/18 09:10:22;;;;;;;16.00;7.83;;;;;;;;;;5069568;28;20265;-68
2022/02/18 09:12:47;;;;;;;12.10;8.17;;;;;;;;;;5055795;28;20180;-68
2022/02/18 09:15:14;;;;;;;13.50;7.83;;;;;;;;;;5042697;28;20201;-68
2022/02/18 09:17:40;;;;;;;14.37;6.77;;;;;;;;;;5071016;28;20548;-68
2022/02/18 09:20:07;;;;;;;12.30;6.87;;;;;;;;;;5073284;28;20789;-69
2022/02/18 09:22:32;;;;;;;15.50;8.87;;;;;;;;;;5072853;28;20181;-68
2022/02/18 09:24:57;;;;;;;14.10;7.43;;;;;;;;;;5069240;28;20564;-68
2022/02/18 09:27:23;;;;;;;12.67;6.60;;;;;;;;;;5065687;28;20188;-68
2022/02/18 09:29:48;;;;;;;10.27;6.57;;;;;;;;;;5069828;28;20196;-68
2022/02/18 09:32:14;;;;;;;8.73;6.90;;;;;;;;;;5051486;28;20210;-68
2022/02/18 09:34:40;;;;;;;10.90;6.70;;;;;;;;;;5080668;28;20185;-68
2022/02/18 09:37:06;;;;;;;10.43;6.80;;;;;;;;;;5070785;28;20210;-68
2022/02/18 09:39:31;;;;;;;10.97;6.93;;;;;;;;;;5084761;28;20185;-67
2022/02/18 09:41:57;;;;;;;11.40;6.20;;;;;;;;;;5087466;28;20270;-69
2022/02/18 09:44:25;;;;;;;10.07;5.60;;;;;;;;;;5084445;28;20223;-67
2022/02/18 09:46:51;;;;;;;8.97;6.10;;;;;;;;;;5084376;28;20182;-67
2022/02/18 09:49:16;;;;;;;8.57;5.40;;;;;;;;;;5084422;28;20204;-67
2022/02/18 09:51:41;;;;;;;6.93;5.77;;;;;;;;;;5057879;28;20306;-69
2022/02/18 09:54:07;;;;;;;6.73;5.43;;;;;;;;;;5075425;28;20596;-67
2022/02/18 09:56:33;;;;;;;6.07;5.47;;;;;;;;;;5068602;28;20181;-68
2022/02/18 09:59:05;;;;;;;7.37;4.93;;;;;;;;;;5070617;28;20455;-69
2022/02/18 10:01:31;;;;;;;5.17;4.53;;;;;;;;;;5070827;28;20181;-69
2022/02/18 10:03:59;;;;;;;4.00;3.63;;;;;;;;;;5071306;28;20256;-69
2022/02/18 10:06:27;;;;;;;7.67;4.43;;;;;;;;;;5067121;28;20196;-69
2022/02/18 10:08:53;;;;;;;6.73;3.97;;;;;;;;;;5071890;28;20205;-69
2022/02/18 10:11:18;;;;;;;3.93;3.40;;;;;;;;;;5072909;28;20165;-69
2022/02/18 10:13:47;;;;;;;4.85;3.55;;;;;;;;;;5068281;28;20240;-69
2022/02/18 10:16:12;;;;;;;3.73;3.37;;;;;;;;;;5063170;28;20184;-69
2022/02/18 10:18:57;;;;;;;3.73;3.33;;;;;;;;;;5075035;28;20168;-69
2022/02/18 10:21:24;;;;;;;3.07;2.77;;;;;;;;;;5055336;28;20183;-69
2022/02/18 10:23:50;;;;;;;6.13;2.80;;;;;;;;;;5070200;28;20228;-69
2022/02/18 10:26:16;;;;;;;3.10;2.40;;;;;;;;;;5070543;28;20208;-68
2022/02/18 10:28:41;;;;;;;3.53;3.23;;;;;;;;;;5054805;28;20598;-69
2022/02/18 10:31:07;;;;;;;3.63;2.70;;;;;;;;;;5071526;28;20188;-68
2022/02/18 10:33:37;;;;;;;2.67;2.47;;;;;;;;;;5070417;28;20576;-69
2022/02/18 10:36:04;;;;;;;2.13;1.93;;;;;;;;;;5051303;28;20197;-70
2022/02/18 10:38:36;;;;;;;4.50;1.85;;;;;;;;;;5065172;28;20219;-69
2022/02/18 10:41:15;;;;;;;2.30;1.93;;;;;;;;;;5061704;28;20189;-70
2022/02/18 10:43:44;;;;;;;2.87;2.33;;;;;;;;;;5064695;28;20688;-70
2022/02/18 10:46:10;;;;;;;2.13;1.17;;;;;;;;;;5068064;28;20211;-70
2022/02/18 10:48:48;;;;;;;9.30;1.90;;;;;;;;;;5064083;28;20600;-69
2022/02/18 10:51:14;;;;;;;3.10;1.58;;;;;;;;;;5046834;28;20525;-68
2022/02/18 10:53:43;;;;;;;7.53;2.53;;;;;;;;;;5066859;28;20268;-69
2022/02/18 10:56:10;;;;;;;3.33;1.33;;;;;;;;;;5067531;28;20670;-69
2022/02/18 10:58:36;;;;;;;1.30;1.20;;;;;;;;;;5052223;28;20588;-70
2022/02/18 11:01:11;;;;;;;1.80;1.17;;;;;;;;;;5066380;28;20662;-70
2022/02/18 11:03:40;;;;;;;1.35;1.00;;;;;;;;;;5068898;28;20210;-70
2022/02/18 11:06:15;;;;;;;1.55;1.10;;;;;;;;;;5071415;28;20176;-70
2022/02/18 11:08:57;;;;;;;2.05;1.17;;;;;;;;;;5067371;28;20574;-70
2022/02/18 11:11:27;;;;;;;1.35;1.00;;;;;;;;;;5065799;28;20692;-70
2022/02/18 11:13:52;;;;;;;1.10;0.82;;;;;;;;;;5066846;28;20199;-69
2022/02/18 11:16:18;;;;;;;1.67;0.82;;;;;;;;;;5060424;28;20173;-69
2022/02/18 11:18:45;;;;;;;1.55;1.38;;;;;;;;;;5054789;28;20215;-70
2022/02/18 11:21:11;;;;;;;0.98;0.88;;;;;;;;;;5069296;28;20181;-68
2022/02/18 11:23:38;;;;;;;1.00;1.00;;;;;;;;;;5072256;28;20694;-68
2022/02/18 11:26:03;;;;;;;1.27;1.17;;;;;;;;;;5054635;28;20169;-70
2022/02/18 11:28:29;;;;;;;1.65;1.00;;;;;;;;;;5069348;28;20211;-70
2022/02/18 11:31:00;;;;;;;2.15;0.82;;;;;;;;;;5048531;28;20201;-70
2022/02/18 11:33:28;;;;;;;2.15;1.02;;;;;;;;;;5067499;28;20650;-67
2022/02/18 11:35:56;;;;;;;0.85;0.82;;;;;;;;;;5063103;28;20176;-69
2022/02/18 11:38:21;;;;;;;0.95;0.88;;;;;;;;;;5062978;28;20177;-68
2022/02/18 11:40:52;;;;;;;2.47;0.70;;;;;;;;;;5050428;28;20196;-68
2022/02/18 11:43:27;;;;;;;0.70;0.70;;;;;;;;;;5067619;28;20632;-69
2022/02/18 11:46:05;;;;;;;1.20;0.80;;;;;;;;;;5062030;28;20303;-69
2022/02/18 11:48:38;;;;;;;0.65;0.65;;;;;;;;;;5067616;28;20261;-68
2022/02/18 11:51:06;;;;;;;1.65;0.80;;;;;;;;;;5071199;28;20195;-69
2022/02/18 11:53:49;;;;;;;1.63;1.00;;;;;;;;;;5043291;28;20181;-69
2022/02/18 11:56:15;;;;;;;1.00;0.90;;;;;;;;;;5069595;28;20522;-69
2022/02/18 11:58:50;;;;;;;2.30;0.80;;;;;;;;;;5048931;28;20201;-69
2022/02/18 12:01:15;;;;;;;1.05;0.80;;;;;;;;;;5070833;28;20184;-68
2022/02/18 12:03:40;;;;;;;3.28;1.13;;;;;;;;;;5071104;28;20196;-69
2022/02/18 12:06:10;;;;;;;2.92;0.85;;;;;;;;;;5063893;28;20177;-69
2022/02/18 12:08:39;;;;;;;7.97;1.63;;;;;;;;;;5071625;28;20176;-70
2022/02/18 12:11:08;;;;;;;2.87;1.00;;;;;;;;;;5067215;28;20173;-69
2022/02/18 12:13:48;;;;;;;9.40;1.77;;;;;;;;;;5069923;28;20638;-69
2022/02/18 12:16:15;;;;;;;7.00;1.70;;;;;;;;;;5074958;28;20200;-70
2022/02/18 12:18:44;;;;;;;9.33;2.80;;;;;;;;;;5050781;28;20189;-69
2022/02/18 12:21:11;;;;;;;9.13;2.27;;;;;;;;;;5064377;28;20646;-70
2022/02/18 12:23:41;;;;;;;10.40;2.37;;;;;;;;;;5072137;28;20201;-69
2022/02/18 12:26:19;;;;;;;6.50;1.77;;;;;;;;;;5073821;28;20199;-69
2022/02/18 12:28:45;;;;;;;7.90;2.00;;;;;;;;;;5071942;28;20294;-70
2022/02/18 12:31:10;;;;;;;8.63;1.67;;;;;;;;;;5073115;28;20242;-70
2022/02/18 12:33:37;;;;;;;8.47;1.83;;;;;;;;;;5050415;28;20205;-70
2022/02/18 12:36:12;;;;;;;9.13;2.07;;;;;;;;;;5068994;28;20260;-70
2022/02/18 12:38:41;;;;;;;9.30;1.70;;;;;;;;;;5054801;28;20267;-69
2022/02/18 12:41:14;;;;;;;5.90;2.07;;;;;;;;;;5070527;28;20267;-69
2022/02/18 12:43:41;;;;;;;2.97;1.10;;;;;;;;;;5062588;28;20201;-70
2022/02/18 12:46:06;;;;;;;9.40;1.93;;;;;;;;;;5082280;28;20195;-69
2022/02/18 12:48:36;;;;;;;10.07;2.03;;;;;;;;;;5088486;28;20638;-68
2022/02/18 12:51:03;;;;;;;5.70;1.40;;;;;;;;;;5068345;28;20207;-69
2022/02/18 12:53:29;;;;;;;6.20;1.40;;;;;;;;;;5082560;28;20181;-69
2022/02/18 12:55:54;;;;;;;4.70;1.43;;;;;;;;;;5085727;28;20168;-69
2022/02/18 12:58:21;;;;;;;8.33;2.43;;;;;;;;;;5067103;28;20249;-69
2022/02/18 13:00:46;;;;;;;8.10;1.80;;;;;;;;;;5078268;28;20180;-70
2022/02/18 13:03:12;;;;;;;7.47;2.30;;;;;;;;;;5074553;28;20181;-69
2022/02/18 13:05:37;;;;;;;5.20;1.53;;;;;;;;;;5071945;28;20232;-69
2022/02/18 13:08:15;;;;;;;6.03;1.60;;;;;;;;;;5073639;28;20642;-70
2022/02/18 13:10:40;;;;;;;14.40;3.30;;;;;;;;;;5071033;28;20239;-69
2022/02/18 13:13:10;;;;;;;10.40;2.37;;;;;;;;;;5073944;28;20176;-70
2022/02/18 13:15:35;;;;;;;13.20;2.20;;;;;;;;;;5069807;28;20197;-70
2022/02/18 13:18:02;;;;;;;14.03;2.90;;;;;;;;;;5053891;28;20272;-69
2022/02/18 13:20:29;;;;;;;14.53;2.27;;;;;;;;;;5072517;28;20177;-70
2022/02/18 13:22:56;;;;;;;14.90;3.40;;;;;;;;;;5071660;28;20181;-70
2022/02/18 13:25:26;;;;;;;14.73;2.40;;;;;;;;;;5066037;28;20212;-70
2022/02/18 13:27:52;;;;;;;10.97;2.27;;;;;;;;;;5064951;28;20193;-70
2022/02/18 13:30:27;;;;;;;10.33;2.60;;;;;;;;;;5072195;28;20224;-68
2022/02/18 13:33:00;;;;;;;10.10;2.53;;;;;;;;;;5071142;28;20645;-69
2022/02/18 13:35:26;;;;;;;15.10;2.30;;;;;;;;;;5067840;28;20220;-69
2022/02/18 13:37:51;;;;;;;16.47;4.07;;;;;;;;;;5054085;28;20634;-69
2022/02/18 13:40:16;;;;;;;14.30;2.60;;;;;;;;;;5054786;28;20638;-69
2022/02/18 13:42:51;;;;;;;14.33;3.10;;;;;;;;;;5068259;28;20211;-69
2022/02/18 13:45:16;;;;;;;12.47;2.70;;;;;;;;;;5066451;28;20576;-69
2022/02/18 13:47:42;;;;;;;9.40;2.80;;;;;;;;;;5055472;28;20177;-70
2022/02/18 13:50:07;;;;;;;12.53;3.43;;;;;;;;;;5074387;28;20205;-70
2022/02/18 13:52:32;;;;;;;16.10;3.33;;;;;;;;;;5070822;28;20184;-69
2022/02/18 13:54:57;;;;;;;11.03;2.90;;;;;;;;;;5070917;28;20196;-69
2022/02/18 13:57:29;;;;;;;24.70;5.07;;;;;;;;;;5054814;28;20976;-70
2022/02/18 13:59:55;;;;;;;12.33;2.57;;;;;;;;;;5067238;28;20200;-69
2022/02/18 14:02:22;;;;;;;13.53;3.87;;;;;;;;;;5052979;28;20681;-69
2022/02/18 14:04:48;;;;;;;18.87;4.27;;;;;;;;;;5068164;28;20677;-69
2022/02/18 14:07:14;;;;;;;10.27;3.17;;;;;;;;;;5068598;28;20241;-69
2022/02/18 14:09:49;;;;;;;12.27;2.47;;;;;;;;;;5067875;28;20205;-69
2022/02/18 14:12:15;;;;;;;18.10;3.30;;;;;;;;;;5070732;28;20233;-69
2022/02/18 14:14:42;;;;;;;12.80;3.83;;;;;;;;;;5069403;28;20223;-69
2022/02/18 14:17:07;;;;;;;13.70;2.93;;;;;;;;;;5070361;28;20252;-70
2022/02/18 14:19:44;;;;;;;10.00;2.77;;;;;;;;;;5066596;28;20176;-69
2022/02/18 14:22:10;;;;;;;12.63;3.60;;;;;;;;;;5051976;28;20258;-69
2022/02/18 14:24:37;;;;;;;20.17;3.13;;;;;;;;;;5077365;22;20252;-70
2022/02/18 14:27:03;;;;;;;14.43;3.20;;;;;;;;;;5071455;28;20173;-71